Time;durP1;ratioP1;P1;durP2;ratioP2;P2;SDS_P1;SDS_P2;PMS_P1;PMS_P2;Temp;Humidity;BMP_temperature;BMP_pressure;BME280_temperature;BME280_humidity;BME280_pressure;Samples;Min_cycle;Max_cycle;Signal;HPM_P1;HPM_P2
2021/11/17 02:25:45;;;;;;;20.30;10.83;;;7.10;99.90;;;;;;5010520;28;20946;-75
2021/11/17 02:28:17;;;;;;;22.60;10.80;;;7.20;99.90;;;;;;5010223;28;20470;-75
2021/11/17 02:30:47;;;;;;;16.50;9.73;;;7.20;99.90;;;;;;5010150;28;20453;-75
2021/11/17 02:33:22;;;;;;;17.90;10.03;;;7.20;99.90;;;;;;5009893;28;20467;-75
2021/11/17 02:36:01;;;;;;;20.60;11.50;;;7.30;99.90;;;;;;4993504;28;20475;-75
2021/11/17 02:38:41;;;;;;;19.57;11.43;;;7.30;99.90;;;;;;4995705;28;20434;-75
2021/11/17 02:41:20;;;;;;;19.60;10.47;;;7.40;99.90;;;;;;5013479;28;20802;-75
2021/11/17 02:43:55;;;;;;;20.83;9.27;;;7.40;99.90;;;;;;5013343;28;20420;-75
2021/11/17 02:46:43;;;;;;;17.93;10.93;;;7.40;99.90;;;;;;4997036;28;20486;-75
2021/11/17 02:49:28;;;;;;;24.40;11.67;;;7.40;99.90;;;;;;5013299;28;20518;-75
2021/11/17 02:52:06;;;;;;;18.87;10.70;;;7.50;99.90;;;;;;4998137;28;20450;-75
2021/11/17 02:54:48;;;;;;;23.13;12.43;;;7.60;99.90;;;;;;5013137;28;20467;-75
2021/11/17 02:57:29;;;;;;;21.53;10.80;;;7.60;99.90;;;;;;4996961;28;20574;-76
2021/11/17 03:00:10;;;;;;;19.97;12.37;;;7.60;99.90;;;;;;5013465;28;20424;-76
2021/11/17 03:02:47;;;;;;;17.67;10.37;;;7.60;99.90;;;;;;5013021;28;20427;-75
2021/11/17 03:05:19;;;;;;;19.90;10.70;;;7.70;99.90;;;;;;5013000;28;20419;-75
2021/11/17 03:07:48;;;;;;;19.57;11.50;;;7.60;99.90;;;;;;5013081;28;20508;-75
2021/11/17 03:10:33;;;;;;;17.80;10.03;;;7.60;99.90;;;;;;5013111;28;20521;-75
2021/11/17 03:13:14;;;;;;;23.53;11.27;;;7.50;99.90;;;;;;4997321;28;20798;-75
2021/11/17 03:16:31;;;;;;;17.33;9.80;;;7.60;99.90;;;;;;4996643;28;21025;-75
2021/11/17 03:19:27;;;;;;;19.07;10.90;;;7.50;99.90;;;;;;4988075;28;20428;-75
2021/11/17 03:21:59;;;;;;;19.20;11.37;;;7.50;99.90;;;;;;4996925;28;20519;-75
2021/11/17 03:24:34;;;;;;;19.80;10.73;;;7.50;99.90;;;;;;4997471;28;20404;-75
2021/11/17 03:27:00;;;;;;;15.70;9.43;;;7.40;99.90;;;;;;5012602;28;20478;-75
2021/11/17 03:29:31;;;;;;;21.53;10.93;;;7.40;99.90;;;;;;5012830;28;20439;-75
2021/11/17 03:32:19;;;;;;;22.20;11.37;;;7.40;99.90;;;;;;5012297;28;20227;-75
2021/11/17 03:34:54;;;;;;;19.00;10.20;;;7.50;99.90;;;;;;5012529;28;20467;-75
2021/11/17 03:37:38;;;;;;;20.20;11.90;;;7.50;99.90;;;;;;5012635;28;20954;-75
2021/11/17 03:40:17;;;;;;;16.70;9.77;;;7.50;99.90;;;;;;4996335;28;20420;-75
2021/11/17 03:43:22;;;;;;;19.30;10.47;;;7.50;99.90;;;;;;4995940;28;20420;-76
2021/11/17 03:46:12;;;;;;;16.80;10.23;;;7.60;99.90;;;;;;4992890;28;20459;-75
2021/11/17 03:49:02;;;;;;;21.33;12.67;;;7.50;99.90;;;;;;4995815;28;20893;-75
2021/11/17 03:51:54;;;;;;;17.50;9.70;;;7.60;99.90;;;;;;5011826;28;20427;-76
2021/11/17 03:54:23;;;;;;;16.37;9.70;;;7.70;99.90;;;;;;5009975;28;20422;-76
2021/11/17 03:57:01;;;;;;;20.10;10.77;;;7.70;99.90;;;;;;5012220;28;20440;-76
2021/11/17 03:59:40;;;;;;;22.97;10.60;;;7.70;99.90;;;;;;4996482;28;20931;-75
2021/11/17 04:02:35;;;;;;;18.37;9.97;;;7.70;99.90;;;;;;4995585;28;20426;-75
2021/11/17 04:05:01;;;;;;;17.70;10.20;;;7.80;99.90;;;;;;4995754;28;20424;-75
2021/11/17 04:08:01;;;;;;;18.27;9.70;;;7.80;99.90;;;;;;5011974;28;20952;-76
2021/11/17 04:10:46;;;;;;;19.10;9.30;;;7.70;99.90;;;;;;5004780;28;20613;-75
2021/11/17 04:13:28;;;;;;;15.80;9.10;;;7.70;99.90;;;;;;4997206;28;20789;-75
2021/11/17 04:16:25;;;;;;;20.20;10.10;;;7.80;99.90;;;;;;4995286;28;20892;-75
2021/11/17 04:19:15;;;;;;;15.60;8.80;;;7.90;99.90;;;;;;4995469;28;20534;-75
2021/11/17 04:21:50;;;;;;;17.60;8.90;;;7.90;99.90;;;;;;5011579;28;20413;-75
2021/11/17 04:24:19;;;;;;;19.30;9.40;;;7.80;99.90;;;;;;5011926;28;20438;-75
2021/11/17 04:27:07;;;;;;;18.57;9.20;;;7.80;99.90;;;;;;5011456;28;20490;-75
2021/11/17 04:29:33;;;;;;;14.40;8.23;;;7.80;99.90;;;;;;4995798;28;20419;-76
2021/11/17 04:32:27;;;;;;;15.73;8.90;;;7.80;99.90;;;;;;5011234;28;20420;-75
2021/11/17 04:35:05;;;;;;;16.97;8.77;;;7.80;99.90;;;;;;5011433;28;20478;-75
2021/11/17 04:38:06;;;;;;;17.03;9.20;;;7.80;99.90;;;;;;5011414;28;20420;-75
2021/11/17 04:40:39;;;;;;;16.00;7.93;;;7.80;99.90;;;;;;5010968;28;20423;-75
2021/11/17 04:43:08;;;;;;;17.20;9.17;;;7.70;99.90;;;;;;4994775;28;20460;-75
2021/11/17 04:45:59;;;;;;;13.70;7.90;;;7.70;99.90;;;;;;5011235;28;20448;-75
2021/11/17 04:48:27;;;;;;;20.77;9.23;;;7.70;99.90;;;;;;5011422;28;20782;-75
2021/11/17 04:51:18;;;;;;;13.67;8.77;;;7.60;99.90;;;;;;5011323;28;20499;-75
2021/11/17 04:53:50;;;;;;;22.97;9.03;;;7.60;99.90;;;;;;4994586;28;20424;-75
2021/11/17 04:56:34;;;;;;;18.50;9.80;;;7.70;99.90;;;;;;4994749;28;20835;-75
2021/11/17 04:59:15;;;;;;;18.27;8.83;;;7.80;99.90;;;;;;5011016;28;20428;-76
2021/11/17 05:02:03;;;;;;;16.03;8.80;;;7.90;99.90;;;;;;5010777;28;20919;-76
2021/11/17 05:04:50;;;;;;;19.53;9.40;;;7.90;99.90;;;;;;5010853;28;20428;-75
2021/11/17 05:07:38;;;;;;;16.20;8.80;;;7.90;99.90;;;;;;4994641;28;20443;-75
2021/11/17 05:10:13;;;;;;;16.57;8.13;;;8.00;99.90;;;;;;5010688;28;20439;-75
2021/11/17 05:13:03;;;;;;;14.63;8.40;;;8.00;99.90;;;;;;5010740;28;20412;-75
2021/11/17 05:15:53;;;;;;;12.97;8.33;;;8.00;99.90;;;;;;5010784;28;20853;-75
2021/11/17 05:19:12;;;;;;;14.00;8.90;;;8.00;99.90;;;;;;5010731;28;20459;-75
2021/11/17 05:22:00;;;;;;;14.83;8.70;;;8.00;99.90;;;;;;4970998;28;20420;-75
2021/11/17 05:24:38;;;;;;;18.00;8.73;;;8.00;99.90;;;;;;5010666;28;20412;-75
2021/11/17 05:27:41;;;;;;;12.33;6.70;;;8.10;99.90;;;;;;4994723;28;20438;-75
2021/11/17 05:30:10;;;;;;;12.77;8.67;;;7.90;99.90;;;;;;4994536;28;20420;-75
2021/11/17 05:32:54;;;;;;;16.30;8.90;;;8.00;99.90;;;;;;5010482;28;20848;-76
2021/11/17 05:35:41;;;;;;;14.13;7.83;;;8.00;99.90;;;;;;5010470;28;20478;-75
2021/11/17 05:38:31;;;;;;;14.53;8.83;;;8.00;99.90;;;;;;5010689;28;20931;-76
2021/11/17 05:41:18;;;;;;;15.90;8.17;;;8.00;99.90;;;;;;4994238;28;20432;-75
2021/11/17 05:44:02;;;;;;;15.43;8.40;;;7.90;99.90;;;;;;5010520;28;20423;-75
2021/11/17 05:47:03;;;;;;;15.43;8.60;;;7.80;99.90;;;;;;4994089;28;20931;-75
2021/11/17 05:49:42;;;;;;;15.90;8.50;;;7.70;99.90;;;;;;4994209;28;20749;-75
2021/11/17 05:52:42;;;;;;;12.63;7.60;;;7.50;99.90;;;;;;4994064;28;20954;-75
2021/11/17 05:55:31;;;;;;;14.60;8.40;;;7.60;99.90;;;;;;5010313;28;20522;-75
2021/11/17 05:58:15;;;;;;;14.70;8.10;;;7.60;99.90;;;;;;5004839;28;21209;-75
2021/11/17 06:00:54;;;;;;;13.83;7.20;;;7.60;99.90;;;;;;5010770;28;20435;-75
2021/11/17 06:03:39;;;;;;;16.43;8.67;;;7.60;99.90;;;;;;4994053;28;20419;-75
2021/11/17 06:06:04;;;;;;;14.33;8.67;;;7.70;99.90;;;;;;4994805;28;20982;-75
2021/11/17 06:08:30;;;;;;;14.23;7.47;;;7.70;99.90;;;;;;5010227;28;20432;-75
2021/11/17 06:11:00;;;;;;;14.20;7.27;;;7.70;99.90;;;;;;5010432;28;20283;-75
2021/11/17 06:13:30;;;;;;;16.20;8.23;;;7.80;99.90;;;;;;5011567;28;20612;-75
2021/11/17 06:15:56;;;;;;;13.00;7.37;;;7.80;99.90;;;;;;5014017;28;20471;-75
2021/11/17 06:18:25;;;;;;;13.90;7.23;;;7.70;99.90;;;;;;5014086;28;20974;-75
2021/11/17 06:20:52;;;;;;;14.90;7.30;;;7.60;99.90;;;;;;5013926;28;20511;-75
2021/11/17 06:23:20;;;;;;;16.70;7.30;;;7.60;99.90;;;;;;5013760;28;20446;-75
2021/11/17 06:25:46;;;;;;;13.13;7.77;;;7.50;99.90;;;;;;5013985;28;21152;-75
2021/11/17 06:28:23;;;;;;;14.33;9.00;;;7.50;99.90;;;;;;5013926;28;20436;-75
2021/11/17 06:30:50;;;;;;;15.60;8.57;;;7.40;99.90;;;;;;5013786;28;20431;-75
2021/11/17 06:33:16;;;;;;;16.90;8.40;;;7.40;99.90;;;;;;5013793;28;20473;-75
2021/11/17 06:35:42;;;;;;;21.10;9.70;;;7.40;99.90;;;;;;5013728;28;20514;-75
2021/11/17 06:38:09;;;;;;;13.00;7.97;;;7.30;99.90;;;;;;5013847;28;20177;-75
2021/11/17 06:40:39;;;;;;;14.93;8.87;;;7.30;99.90;;;;;;5013548;28;20584;-75
2021/11/17 06:43:06;;;;;;;16.63;8.30;;;7.30;99.90;;;;;;5013517;28;20877;-75
2021/11/17 06:45:42;;;;;;;14.20;7.50;;;7.30;99.90;;;;;;5013412;28;20490;-75
2021/11/17 06:48:09;;;;;;;15.90;8.60;;;7.30;99.90;;;;;;5013631;28;20420;-75
2021/11/17 06:50:38;;;;;;;14.80;8.80;;;7.30;99.90;;;;;;5013693;28;20428;-75
2021/11/17 06:53:05;;;;;;;14.50;8.33;;;7.30;99.90;;;;;;5013392;28;20435;-75
2021/11/17 06:55:31;;;;;;;17.43;9.23;;;7.40;99.90;;;;;;5013265;28;20471;-75
2021/11/17 06:58:00;;;;;;;15.60;8.20;;;7.40;99.90;;;;;;5013327;28;20427;-75
2021/11/17 07:00:29;;;;;;;15.60;8.90;;;7.40;99.90;;;;;;5013275;28;20432;-75
2021/11/17 07:02:55;;;;;;;14.43;8.00;;;7.50;99.90;;;;;;5013243;28;20481;-75
2021/11/17 07:05:22;;;;;;;15.60;8.20;;;7.60;99.90;;;;;;5013151;28;20965;-75
2021/11/17 07:07:54;;;;;;;16.10;8.20;;;7.70;99.90;;;;;;5013058;28;20478;-75
2021/11/17 07:10:22;;;;;;;13.87;8.87;;;7.70;99.90;;;;;;5013061;28;20871;-75
2021/11/17 07:12:48;;;;;;;13.50;7.87;;;7.70;99.90;;;;;;5012670;28;21010;-75
2021/11/17 07:15:15;;;;;;;13.57;8.17;;;7.80;99.90;;;;;;5012888;28;20546;-75
2021/11/17 07:17:41;;;;;;;16.00;8.40;;;7.80;99.90;;;;;;5012999;28;20911;-76
2021/11/17 07:20:09;;;;;;;14.63;8.20;;;7.70;99.90;;;;;;5012787;28;20424;-76
2021/11/17 07:22:35;;;;;;;16.97;9.13;;;7.70;99.90;;;;;;5013213;28;20184;-76
2021/11/17 07:25:02;;;;;;;16.13;8.80;;;7.70;99.90;;;;;;5012332;28;20428;-76
2021/11/17 07:27:28;;;;;;;14.23;7.70;;;7.80;99.90;;;;;;5012965;28;20451;-77
2021/11/17 07:29:55;;;;;;;14.40;8.17;;;7.80;99.90;;;;;;5012562;28;20428;-76
2021/11/17 07:32:26;;;;;;;17.37;8.57;;;7.80;99.90;;;;;;5012480;28;20438;-76
2021/11/17 07:34:52;;;;;;;15.83;9.83;;;7.90;99.90;;;;;;5012613;28;20463;-77
2021/11/17 07:37:18;;;;;;;13.27;8.60;;;7.90;99.90;;;;;;5012933;28;20793;-76
2021/11/17 07:39:44;;;;;;;15.60;8.50;;;8.00;99.90;;;;;;5012477;28;20462;-77
2021/11/17 07:42:10;;;;;;;11.93;8.50;;;7.90;99.90;;;;;;5012343;28;20427;-77
2021/11/17 07:44:36;;;;;;;14.80;8.00;;;7.80;99.90;;;;;;5012698;28;20184;-77
2021/11/17 07:47:03;;;;;;;13.03;6.50;;;7.90;99.90;;;;;;5012533;28;20478;-76
2021/11/17 07:49:29;;;;;;;14.00;7.00;;;7.90;99.90;;;;;;5013394;28;20420;-77
2021/11/17 07:51:56;;;;;;;12.77;7.00;;;8.00;99.90;;;;;;5013093;28;20801;-77
2021/11/17 07:54:24;;;;;;;10.67;6.47;;;8.10;99.90;;;;;;5012212;28;20579;-77
2021/11/17 07:56:51;;;;;;;12.40;6.67;;;8.20;99.90;;;;;;5012051;28;20448;-77
2021/11/17 07:59:20;;;;;;;11.60;6.83;;;8.30;99.90;;;;;;5012274;28;20424;-77
2021/11/17 08:01:49;;;;;;;15.57;7.47;;;8.30;99.90;;;;;;5011881;28;20461;-77
2021/11/17 08:04:20;;;;;;;12.13;6.57;;;8.30;99.90;;;;;;5012389;28;20420;-77
2021/11/17 08:06:46;;;;;;;14.93;7.60;;;8.40;99.90;;;;;;5012102;28;20448;-77
2021/11/17 08:09:13;;;;;;;8.73;5.40;;;8.50;99.90;;;;;;5011865;28;20444;-77
2021/11/17 08:11:40;;;;;;;15.07;8.57;;;8.50;99.90;;;;;;5011886;28;20477;-77
2021/11/17 08:14:10;;;;;;;9.87;6.50;;;8.50;99.90;;;;;;5012036;28;20869;-77
2021/11/17 08:16:37;;;;;;;12.53;6.23;;;8.60;99.90;;;;;;5012084;28;20471;-77
2021/11/17 08:19:03;;;;;;;12.23;6.87;;;8.60;99.90;;;;;;5012023;28;20478;-77
2021/11/17 08:21:28;;;;;;;11.40;6.27;;;8.60;99.90;;;;;;5012475;28;20429;-78
2021/11/17 08:23:54;;;;;;;13.50;6.80;;;8.70;99.90;;;;;;5012709;28;20652;-78
2021/11/17 08:26:23;;;;;;;14.60;7.63;;;8.70;99.90;;;;;;5011869;28;20214;-77
2021/11/17 08:28:50;;;;;;;10.70;6.30;;;8.70;99.90;;;;;;5011752;28;20200;-78
2021/11/17 08:31:16;;;;;;;15.03;8.17;;;8.80;99.90;;;;;;5015074;28;20428;-78
2021/11/17 08:33:44;;;;;;;11.20;6.47;;;8.90;99.90;;;;;;5015223;28;20451;-78
2021/11/17 08:36:11;;;;;;;13.57;7.50;;;8.90;99.90;;;;;;5011319;28;20475;-78
2021/11/17 08:38:37;;;;;;;15.70;7.97;;;8.90;99.90;;;;;;5011789;28;20919;-78
2021/11/17 08:41:07;;;;;;;10.40;5.40;;;8.90;99.90;;;;;;5011484;28;20519;-77
2021/11/17 08:43:34;;;;;;;14.97;8.47;;;8.90;99.90;;;;;;5012448;28;20512;-77
2021/11/17 08:46:02;;;;;;;12.03;6.30;;;8.70;99.90;;;;;;5012418;28;20825;-77
2021/11/17 08:48:31;;;;;;;10.70;6.50;;;8.70;99.90;;;;;;5011554;28;20515;-77
2021/11/17 08:50:59;;;;;;;14.87;6.83;;;8.60;99.90;;;;;;5011148;28;20543;-77
2021/11/17 08:53:27;;;;;;;12.73;6.10;;;8.60;99.90;;;;;;5011771;28;20427;-77
2021/11/17 08:55:55;;;;;;;11.30;7.00;;;8.50;99.90;;;;;;5011093;28;20503;-76
2021/11/17 08:58:22;;;;;;;10.43;6.67;;;8.50;99.90;;;;;;5011104;28;20468;-76
2021/11/17 09:00:48;;;;;;;10.30;6.20;;;8.50;99.90;;;;;;5011140;28;20439;-77
2021/11/17 09:03:15;;;;;;;14.00;7.67;;;8.50;99.90;;;;;;5011258;28;20420;-76
2021/11/17 09:05:45;;;;;;;11.13;6.00;;;8.50;99.90;;;;;;5011097;28;20447;-76
2021/11/17 09:08:12;;;;;;;12.40;6.23;;;8.60;99.90;;;;;;5012398;28;20514;-76
2021/11/17 09:10:41;;;;;;;10.50;6.70;;;8.60;99.90;;;;;;5011048;28;20958;-76
2021/11/17 09:13:08;;;;;;;13.20;7.60;;;8.60;99.90;;;;;;5010546;28;20419;-76
2021/11/17 09:15:37;;;;;;;14.23;7.33;;;8.60;99.90;;;;;;5010664;28;20501;-75
2021/11/17 09:18:07;;;;;;;9.40;5.63;;;8.60;99.90;;;;;;5010771;28;20939;-75
2021/11/17 09:20:34;;;;;;;13.30;5.67;;;8.70;99.90;;;;;;5012286;28;20458;-76
2021/11/17 09:23:03;;;;;;;13.37;7.57;;;8.70;99.90;;;;;;5010622;28;20927;-77
2021/11/17 09:25:30;;;;;;;10.37;6.00;;;8.70;99.90;;;;;;5010798;28;20815;-76
2021/11/17 09:27:56;;;;;;;10.90;5.37;;;8.80;99.90;;;;;;5010704;28;20420;-76
2021/11/17 09:30:25;;;;;;;11.33;6.60;;;8.80;99.90;;;;;;5010997;28;20506;-76
2021/11/17 09:32:54;;;;;;;12.10;7.13;;;8.90;99.90;;;;;;5010734;28;20424;-76
2021/11/17 09:35:20;;;;;;;11.90;6.17;;;8.90;99.90;;;;;;5010473;28;21002;-76
2021/11/17 09:37:49;;;;;;;10.40;5.80;;;9.00;99.90;;;;;;5010721;28;20904;-76
2021/11/17 09:40:22;;;;;;;9.33;6.40;;;9.10;99.90;;;;;;5010724;28;20511;-76
2021/11/17 09:42:50;;;;;;;12.50;7.60;;;9.10;99.90;;;;;;5011063;28;20460;-78
2021/11/17 09:45:17;;;;;;;15.57;6.43;;;9.10;99.90;;;;;;5012211;28;20794;-79
2021/11/17 09:47:44;;;;;;;10.70;6.40;;;9.10;99.90;;;;;;5017095;28;20431;-79
2021/11/17 09:50:37;;;;;;;9.23;5.50;;;9.10;99.90;;;;;;5016819;28;20802;-78
2021/11/17 09:53:11;;;;;;;10.73;7.30;;;9.10;99.90;;;;;;5014530;28;20469;-77
2021/11/17 09:55:44;;;;;;;11.70;5.80;;;9.10;99.90;;;;;;5014547;28;20487;-76
2021/11/17 09:58:37;;;;;;;11.43;6.00;;;9.10;99.90;;;;;;5018445;28;20445;-79
2021/11/17 10:01:11;;;;;;;13.63;7.30;;;9.20;99.90;;;;;;5018511;28;20610;-79
2021/11/17 10:03:40;;;;;;;11.37;6.97;;;9.20;99.90;;;;;;5018264;28;21034;-79
2021/11/17 10:14:42;;;;;;;11.23;6.23;;;9.00;99.90;;;;;;5018157;28;20423;-78
2021/11/17 10:17:30;;;;;;;12.30;6.87;;;9.20;99.90;;;;;;5016619;28;20460;-79
2021/11/17 10:20:30;;;;;;;12.00;6.07;;;9.30;99.90;;;;;;5016456;28;20424;-79
2021/11/17 10:23:05;;;;;;;10.00;6.00;;;9.20;99.90;;;;;;5016599;28;20415;-79
2021/11/17 10:25:46;;;;;;;11.20;5.93;;;9.20;99.90;;;;;;5016529;28;20432;-79
2021/11/17 10:28:12;;;;;;;10.33;5.67;;;9.30;99.90;;;;;;5017201;28;20456;-79
2021/11/17 10:31:01;;;;;;;14.03;6.90;;;9.30;99.90;;;;;;5016571;28;20431;-79
2021/11/17 10:33:46;;;;;;;10.60;6.67;;;9.40;99.90;;;;;;5009525;28;20487;-78
2021/11/17 10:36:18;;;;;;;10.67;6.30;;;9.50;99.90;;;;;;5016442;28;20479;-78
2021/11/17 10:38:51;;;;;;;12.10;7.70;;;9.60;99.90;;;;;;5018200;28;20478;-79
2021/11/17 10:41:30;;;;;;;10.70;6.70;;;9.60;99.90;;;;;;5017124;28;20791;-79
2021/11/17 10:44:02;;;;;;;12.40;7.43;;;9.60;99.90;;;;;;5017237;28;20470;-79
2021/11/17 10:46:32;;;;;;;12.13;7.47;;;9.70;99.90;;;;;;5017790;28;20446;-79
2021/11/17 10:49:24;;;;;;;14.17;7.70;;;9.70;99.90;;;;;;5017517;28;20831;-79
2021/11/17 10:51:59;;;;;;;13.50;7.93;;;9.70;99.90;;;;;;5017103;28;20435;-79
2021/11/17 10:54:28;;;;;;;11.07;7.27;;;9.70;99.90;;;;;;5017156;28;20427;-79
2021/11/17 10:57:18;;;;;;;14.30;6.80;;;9.60;99.90;;;;;;5017504;28;20815;-79
2021/11/17 10:59:44;;;;;;;11.37;6.70;;;9.60;99.90;;;;;;5017169;28;20443;-79
2021/11/17 11:02:11;;;;;;;11.43;7.10;;;9.70;99.90;;;;;;5015627;28;20478;-77
2021/11/17 11:04:40;;;;;;;12.60;7.93;;;9.70;99.90;;;;;;5013240;28;20419;-76
2021/11/17 11:07:21;;;;;;;10.07;6.63;;;9.80;99.90;;;;;;5012990;28;20448;-76
2021/11/17 11:09:57;;;;;;;10.53;6.50;;;9.70;99.90;;;;;;5013851;28;20442;-77
2021/11/17 11:12:27;;;;;;;17.33;7.77;;;9.80;99.90;;;;;;5012722;28;20475;-76
2021/11/17 11:15:13;;;;;;;12.47;7.73;;;9.90;99.90;;;;;;5012931;28;20463;-76
2021/11/17 11:17:47;;;;;;;12.90;7.70;;;9.90;99.90;;;;;;5012933;28;20420;-78
2021/11/17 11:20:16;;;;;;;13.20;7.27;;;9.90;99.90;;;;;;5013675;28;20454;-78
2021/11/17 11:23:23;;;;;;;14.57;7.77;;;9.90;99.90;;;;;;5013981;28;20427;-77
2021/11/17 11:26:10;;;;;;;13.83;7.00;;;9.90;99.90;;;;;;4989048;28;20892;-77
2021/11/17 11:28:46;;;;;;;15.57;8.50;;;9.90;99.90;;;;;;5013377;28;20529;-77
2021/11/17 11:31:12;;;;;;;11.60;6.90;;;9.90;99.90;;;;;;5013734;28;20503;-77
2021/11/17 11:33:48;;;;;;;15.70;8.50;;;9.90;99.90;;;;;;5013111;28;20428;-77
2021/11/17 11:36:14;;;;;;;12.37;7.47;;;9.90;99.90;;;;;;5012648;28;20220;-77
2021/11/17 11:39:09;;;;;;;14.77;7.80;;;10.00;99.90;;;;;;5012823;28;20438;-77
2021/11/17 11:41:58;;;;;;;15.27;8.57;;;10.00;99.90;;;;;;4977134;28;20221;-77
2021/11/17 11:44:31;;;;;;;18.27;10.30;;;10.10;99.90;;;;;;5012499;28;20432;-77
2021/11/17 11:46:57;;;;;;;14.90;8.70;;;10.10;99.90;;;;;;5012559;28;20440;-77
2021/11/17 11:49:56;;;;;;;15.10;8.80;;;10.20;99.90;;;;;;5012441;28;20841;-77
2021/11/17 11:52:22;;;;;;;18.07;11.03;;;10.20;99.90;;;;;;5002009;28;20720;-77
2021/11/17 11:54:51;;;;;;;15.47;9.97;;;10.20;99.90;;;;;;5012146;28;20605;-77
2021/11/17 11:57:23;;;;;;;16.17;9.93;;;10.20;99.90;;;;;;5012328;28;20197;-77
2021/11/17 12:00:02;;;;;;;18.23;11.70;;;10.30;99.90;;;;;;5012209;28;20500;-78
2021/11/17 12:02:33;;;;;;;20.13;10.90;;;10.30;99.90;;;;;;5012042;28;20435;-77
2021/11/17 12:05:03;;;;;;;16.73;10.50;;;10.30;99.90;;;;;;5012076;28;20946;-76
2021/11/17 12:07:51;;;;;;;19.03;10.17;;;10.30;99.90;;;;;;5012193;28;20427;-77
2021/11/17 12:10:29;;;;;;;20.00;12.87;;;10.20;99.90;;;;;;5011161;28;20451;-76
2021/11/17 12:12:55;;;;;;;20.27;11.33;;;10.30;99.90;;;;;;5012051;28;20424;-77
2021/11/17 12:15:27;;;;;;;18.53;10.13;;;10.30;99.90;;;;;;5012078;28;20998;-76
2021/11/17 12:18:11;;;;;;;21.77;10.90;;;10.30;99.90;;;;;;5012450;28;20420;-76
2021/11/17 12:20:42;;;;;;;15.70;9.20;;;10.40;99.90;;;;;;5011972;28;20886;-75
2021/11/17 12:23:20;;;;;;;20.73;10.13;;;10.30;99.90;;;;;;5011762;28;20428;-76
2021/11/17 12:26:07;;;;;;;19.23;11.20;;;10.40;99.90;;;;;;5011881;28;20475;-77
2021/11/17 12:28:40;;;;;;;16.90;10.47;;;10.30;99.90;;;;;;5011861;28;20805;-77
2021/11/17 12:31:11;;;;;;;19.87;11.60;;;10.40;99.90;;;;;;5013379;28;20452;-78
2021/11/17 12:33:53;;;;;;;19.03;10.73;;;10.40;99.90;;;;;;5105961;27;20560;-79
2021/11/17 12:36:27;;;;;;;16.80;10.47;;;10.40;99.90;;;;;;5072970;28;20523;-80
2021/11/17 12:38:54;;;;;;;20.70;10.80;;;10.40;99.90;;;;;;5071862;28;20943;-78
2021/11/17 12:41:20;;;;;;;17.80;11.50;;;10.50;99.90;;;;;;5070910;28;20423;-78
2021/11/17 12:43:58;;;;;;;18.87;10.53;;;10.50;99.90;;;;;;5071325;28;20520;-78
2021/11/17 12:46:54;;;;;;;25.10;11.57;;;10.50;99.90;;;;;;5069999;28;20213;-78
2021/11/17 12:49:37;;;;;;;18.20;10.60;;;10.40;99.90;;;;;;5068017;28;20780;-78
2021/11/17 12:52:19;;;;;;;22.20;11.97;;;10.40;99.90;;;;;;5070901;28;20456;-78
2021/11/17 12:54:55;;;;;;;20.10;9.93;;;10.50;99.90;;;;;;5067476;28;20932;-76
2021/11/17 12:57:26;;;;;;;17.97;10.70;;;10.40;99.90;;;;;;5057523;28;20485;-77
2021/11/17 13:00:13;;;;;;;21.10;12.07;;;10.30;99.90;;;;;;5067155;28;20428;-77
2021/11/17 13:02:56;;;;;;;26.17;12.93;;;10.20;99.90;;;;;;5063011;28;20520;-77
2021/11/17 13:05:27;;;;;;;23.50;12.53;;;10.20;99.90;;;;;;5067118;28;20815;-77
2021/11/17 13:08:18;;;;;;;27.03;12.17;;;10.20;99.90;;;;;;5067129;28;20534;-77
2021/11/17 13:10:49;;;;;;;27.77;13.73;;;10.20;99.90;;;;;;5066551;28;20426;-77
2021/11/17 13:13:40;;;;;;;21.90;12.00;;;10.30;99.90;;;;;;5066534;28;20465;-77
2021/11/17 13:16:14;;;;;;;24.43;14.50;;;10.20;99.90;;;;;;5066850;28;20507;-76
2021/11/17 13:18:46;;;;;;;26.20;14.43;;;10.20;99.90;;;;;;5067001;28;20455;-77
2021/11/17 13:21:21;;;;;;;28.77;14.90;;;10.20;99.90;;;;;;5066857;28;20467;-77
2021/11/17 13:23:59;;;;;;;26.17;14.83;;;10.20;99.90;;;;;;5066285;28;20432;-77
2021/11/17 13:26:36;;;;;;;28.40;13.60;;;10.20;99.90;;;;;;5066663;28;20497;-77
2021/11/17 13:29:43;;;;;;;28.30;16.47;;;10.20;99.90;;;;;;5066846;28;20421;-77
2021/11/17 13:32:09;;;;;;;25.50;14.23;;;10.20;99.90;;;;;;5066220;28;20472;-77
2021/11/17 13:34:45;;;;;;;34.40;17.13;;;10.20;99.90;;;;;;5066712;28;20482;-77
2021/11/17 13:37:32;;;;;;;28.40;15.50;;;10.20;99.90;;;;;;5066053;28;20290;-77
2021/11/17 13:40:00;;;;;;;27.27;14.57;;;10.20;99.90;;;;;;5066567;28;20416;-77
2021/11/17 13:42:29;;;;;;;26.73;13.80;;;10.10;99.90;;;;;;5066137;28;20512;-77
2021/11/17 13:44:57;;;;;;;30.00;16.23;;;10.10;99.90;;;;;;5054289;28;20425;-77
2021/11/17 13:47:25;;;;;;;30.63;15.93;;;10.10;99.90;;;;;;5053048;28;20433;-77
2021/11/17 13:49:54;;;;;;;28.23;13.60;;;10.00;99.90;;;;;;5052940;28;20414;-77
2021/11/17 13:52:24;;;;;;;31.10;15.50;;;10.00;99.90;;;;;;5052582;28;20472;-77
2021/11/17 13:54:50;;;;;;;32.33;15.50;;;10.10;99.90;;;;;;5051187;28;20424;-77
2021/11/17 13:57:17;;;;;;;31.97;16.90;;;10.10;99.90;;;;;;5052866;28;20530;-77
2021/11/17 13:59:44;;;;;;;28.30;14.60;;;10.10;99.90;;;;;;5052889;28;20211;-77
2021/11/17 14:02:11;;;;;;;33.40;16.90;;;10.10;99.90;;;;;;5052208;28;20844;-77
2021/11/17 14:04:37;;;;;;;30.07;15.87;;;10.00;99.90;;;;;;5052806;28;20421;-77
2021/11/17 14:07:04;;;;;;;27.77;15.47;;;10.10;99.90;;;;;;5052667;28;20812;-77
2021/11/17 14:09:30;;;;;;;37.13;16.93;;;10.10;99.90;;;;;;5052680;28;20800;-77
2021/11/17 14:11:57;;;;;;;29.87;16.87;;;10.00;99.90;;;;;;5052208;28;20470;-77
2021/11/17 14:14:24;;;;;;;32.00;15.80;;;10.00;99.90;;;;;;5052449;28;20176;-77
2021/11/17 14:16:50;;;;;;;30.87;17.17;;;10.20;99.90;;;;;;5051059;28;20461;-77
2021/11/17 14:19:16;;;;;;;33.73;15.37;;;10.10;99.90;;;;;;5047907;28;20442;-77
2021/11/17 14:21:42;;;;;;;33.20;16.60;;;10.20;99.90;;;;;;5057713;28;20197;-76
2021/11/17 14:24:11;;;;;;;32.50;17.60;;;10.30;99.90;;;;;;5052158;28;20434;-77
2021/11/17 14:26:40;;;;;;;34.27;18.50;;;10.30;99.90;;;;;;5051975;28;20446;-77
2021/11/17 14:29:14;;;;;;;32.20;16.40;;;10.20;99.90;;;;;;5052502;28;20432;-77
2021/11/17 14:31:44;;;;;;;29.00;15.97;;;10.20;99.90;;;;;;5051934;28;20484;-77
2021/11/17 14:34:11;;;;;;;28.03;15.03;;;10.20;99.90;;;;;;5052396;28;20427;-78
2021/11/17 14:36:46;;;;;;;27.77;14.80;;;10.20;99.90;;;;;;5051749;28;20446;-79
2021/11/17 14:39:13;;;;;;;36.03;16.40;;;10.20;99.90;;;;;;5052422;28;20417;-78
2021/11/17 14:41:39;;;;;;;26.80;16.90;;;10.30;99.90;;;;;;5051869;28;20808;-78
2021/11/17 14:44:06;;;;;;;32.53;15.20;;;10.30;99.90;;;;;;5052215;28;20417;-77
2021/11/17 14:46:32;;;;;;;30.77;16.33;;;10.30;99.90;;;;;;5051947;28;20446;-77
2021/11/17 14:48:58;;;;;;;33.17;16.57;;;10.30;99.90;;;;;;5045982;28;20430;-77
2021/11/17 14:51:25;;;;;;;27.60;15.43;;;10.20;99.90;;;;;;5045111;28;20449;-77
2021/11/17 14:53:52;;;;;;;37.67;17.43;;;10.20;99.90;;;;;;5048040;28;20426;-77
2021/11/17 14:56:20;;;;;;;31.03;14.90;;;10.20;99.90;;;;;;5048149;28;20442;-77
2021/11/17 14:58:46;;;;;;;34.00;17.47;;;10.20;99.90;;;;;;5051857;28;20932;-77
2021/11/17 15:01:20;;;;;;;36.63;16.73;;;10.20;99.90;;;;;;5051463;28;20418;-77
2021/11/17 15:03:47;;;;;;;39.17;16.87;;;10.20;99.90;;;;;;5051455;28;21184;-77
2021/11/17 15:06:16;;;;;;;32.40;17.70;;;10.30;99.90;;;;;;5051621;28;20813;-77
2021/11/17 15:08:42;;;;;;;34.80;18.33;;;10.30;99.90;;;;;;5051735;28;20417;-77
2021/11/17 15:11:08;;;;;;;36.80;17.13;;;10.30;99.90;;;;;;5051259;28;20433;-77
2021/11/17 15:13:34;;;;;;;38.03;16.70;;;10.20;99.90;;;;;;5051029;28;20476;-78
2021/11/17 15:16:01;;;;;;;29.57;16.23;;;10.20;99.90;;;;;;5051400;28;20974;-77
2021/11/17 15:18:28;;;;;;;30.83;17.00;;;10.20;99.90;;;;;;5051589;28;20426;-77
2021/11/17 15:20:55;;;;;;;29.00;15.43;;;10.20;99.90;;;;;;5051323;28;20450;-77
2021/11/17 15:23:22;;;;;;;31.63;17.77;;;10.30;99.90;;;;;;5051314;28;20432;-77
2021/11/17 15:25:50;;;;;;;26.23;16.73;;;10.30;99.90;;;;;;5051885;28;21033;-78
2021/11/17 15:28:21;;;;;;;31.93;17.20;;;10.20;99.90;;;;;;5051640;28;20799;-77
2021/11/17 15:30:51;;;;;;;31.53;16.20;;;10.20;99.90;;;;;;5051094;28;20468;-78
2021/11/17 15:33:17;;;;;;;34.07;16.13;;;10.10;99.90;;;;;;5050783;28;20473;-77
2021/11/17 15:35:43;;;;;;;26.03;15.90;;;10.20;99.90;;;;;;5050957;28;20541;-77
2021/11/17 15:38:10;;;;;;;32.70;15.83;;;10.20;99.90;;;;;;5050736;28;20516;-79
2021/11/17 15:40:39;;;;;;;30.17;16.87;;;10.30;99.90;;;;;;5052258;28;20430;-78
2021/11/17 15:43:05;;;;;;;32.67;17.27;;;10.30;99.90;;;;;;5052746;28;20476;-78
2021/11/17 15:45:32;;;;;;;32.57;17.17;;;10.20;99.90;;;;;;5051122;28;20869;-79
2021/11/17 15:47:59;;;;;;;34.10;16.67;;;10.30;99.90;;;;;;5051660;28;20431;-77
2021/11/17 15:50:32;;;;;;;32.77;17.60;;;10.20;99.90;;;;;;5050838;28;20968;-77